createdAt,value
2023-04-04T00:02:23.468Z,100356.00
2023-04-04T00:04:50.006Z,100357.72
2023-04-04T00:07:16.981Z,100348.31
2023-04-04T00:09:43.506Z,100358.59
2023-04-04T00:12:10.078Z,100361.50
2023-04-04T00:14:36.727Z,100360.09
2023-04-04T00:17:03.270Z,100355.00
2023-04-04T00:19:29.816Z,100358.69
2023-04-04T00:21:56.480Z,100357.47
2023-04-04T00:24:23.081Z,100352.59
2023-04-04T00:26:49.601Z,100349.34
2023-04-04T00:29:16.201Z,100339.09
2023-04-04T00:31:42.867Z,100344.69
2023-04-04T00:34:09.418Z,100347.34
2023-04-04T00:36:36.216Z,100342.00
2023-04-04T00:39:02.743Z,100343.25
2023-04-04T00:41:30.137Z,100337.09
2023-04-04T00:43:56.866Z,100330.81
2023-04-04T00:46:25.264Z,100342.50
2023-04-04T00:48:52.109Z,100337.59
2023-04-04T00:51:18.617Z,100337.25
2023-04-04T00:53:46.950Z,100332.34
2023-04-04T00:56:13.988Z,100331.53
2023-04-04T00:58:41.631Z,100338.94
2023-04-04T01:01:08.587Z,100335.06
2023-04-04T01:03:35.494Z,100333.88
2023-04-04T01:06:02.742Z,100329.19
2023-04-04T01:08:30.435Z,100325.94
2023-04-04T01:10:57.642Z,100319.19
2023-04-04T01:13:24.319Z,100327.03
2023-04-04T01:15:51.279Z,100329.09
2023-04-04T01:18:21.480Z,100323.63
2023-04-04T01:20:57.748Z,100324.06
2023-04-04T01:23:35.119Z,100328.16
2023-04-04T01:26:03.725Z,100314.03
2023-04-04T01:28:30.346Z,100318.53
2023-04-04T01:30:59.887Z,100317.94
2023-04-04T01:33:31.325Z,100311.41
2023-04-04T01:36:03.831Z,100308.38
2023-04-04T01:38:45.955Z,100316.81
2023-04-04T01:41:13.094Z,100312.78
2023-04-04T01:43:39.665Z,100306.22
2023-04-04T01:46:06.768Z,100306.22
2023-04-04T01:48:33.444Z,100314.22
2023-04-04T01:51:01.954Z,100309.28
2023-04-04T01:53:28.540Z,100311.16
2023-04-04T01:55:55.141Z,100313.00
2023-04-04T01:58:22.347Z,100305.44
2023-04-04T02:00:48.866Z,100307.50
2023-04-04T02:03:15.865Z,100308.78
2023-04-04T02:05:42.782Z,100308.97
2023-04-04T02:08:09.328Z,100308.38
2023-04-04T02:10:35.915Z,100307.53
2023-04-04T02:13:02.476Z,100301.41
2023-04-04T02:15:29.129Z,100300.59
2023-04-04T02:17:55.714Z,100306.16
2023-04-04T02:20:22.686Z,100312.50
2023-04-04T02:22:56.212Z,100316.00
2023-04-04T02:25:24.461Z,100312.75
2023-04-04T02:27:51.449Z,100315.66
2023-04-04T02:30:19.423Z,100311.34
2023-04-04T02:32:47.222Z,100312.59
2023-04-04T02:35:13.902Z,100317.31
2023-04-04T02:37:40.665Z,100323.06
2023-04-04T02:40:08.062Z,100314.69
2023-04-04T02:42:34.586Z,100319.22
2023-04-04T02:45:01.331Z,100311.66
2023-04-04T02:47:28.660Z,100308.78
2023-04-04T02:49:55.241Z,100303.91
2023-04-04T02:52:22.373Z,100307.41
2023-04-04T02:54:49.838Z,100310.25
2023-04-04T02:57:16.380Z,100308.22
2023-04-04T02:59:43.191Z,100304.16
2023-04-04T03:02:09.713Z,100311.56
2023-04-04T03:04:36.814Z,100305.03
2023-04-04T03:07:03.804Z,100306.47
2023-04-04T03:09:30.369Z,100308.94
2023-04-04T03:11:57.188Z,100305.50
2023-04-04T03:14:23.882Z,100312.91
2023-04-04T03:16:50.609Z,100308.22
2023-04-04T03:19:17.305Z,100315.41
2023-04-04T03:21:43.853Z,100310.72
2023-04-04T03:24:10.424Z,100314.63
2023-04-04T03:26:37.497Z,100318.72
2023-04-04T03:29:04.809Z,100311.16
2023-04-04T03:31:31.572Z,100313.44
2023-04-04T03:33:59.903Z,100306.09
2023-04-04T03:36:26.841Z,100305.69
2023-04-04T03:38:53.493Z,100318.19
2023-04-04T03:41:20.063Z,100311.00
2023-04-04T03:43:46.605Z,100309.97
2023-04-04T03:46:13.195Z,100318.78
2023-04-04T03:48:39.916Z,100312.25
2023-04-04T03:51:06.490Z,100316.75
2023-04-04T03:53:33.192Z,100309.59
2023-04-04T03:55:59.892Z,100309.38
2023-04-04T03:58:28.324Z,100308.97
2023-04-04T04:00:55.115Z,100313.69
2023-04-04T04:03:21.883Z,100314.72
2023-04-04T04:05:48.670Z,100315.72
2023-04-04T04:08:15.209Z,100313.06
2023-04-04T04:10:41.963Z,100311.44
2023-04-04T04:13:08.873Z,100308.78
2023-04-04T04:15:35.591Z,100312.44
2023-04-04T04:18:02.139Z,100302.25
2023-04-04T04:20:28.693Z,100303.06
2023-04-04T04:22:55.374Z,100294.25
2023-04-04T04:25:22.134Z,100289.97
2023-04-04T04:27:49.011Z,100295.28
2023-04-04T04:30:15.631Z,100303.88
2023-04-04T04:32:42.363Z,100303.28
2023-04-04T04:35:09.855Z,100307.78
2023-04-04T04:37:36.586Z,100294.09
2023-04-04T04:40:03.422Z,100294.50
2023-04-04T04:42:30.116Z,100296.75
2023-04-04T04:44:56.711Z,100295.75
2023-04-04T04:47:23.636Z,100299.44
2023-04-04T04:49:50.215Z,100291.25
2023-04-04T04:52:16.771Z,100297.59
2023-04-04T04:54:45.974Z,100288.91
2023-04-04T04:57:12.568Z,100283.66
2023-04-04T04:59:41.307Z,100286.59
2023-04-04T05:02:08.019Z,100269.69
2023-04-04T05:04:34.911Z,100278.91
2023-04-04T05:07:01.665Z,100279.84
2023-04-04T05:09:28.258Z,100287.53
2023-04-04T05:11:54.822Z,100287.53
2023-04-04T05:14:21.374Z,100291.97
2023-04-04T05:16:49.040Z,100297.19
2023-04-04T05:19:15.843Z,100293.25
2023-04-04T05:21:43.279Z,100293.78
2023-04-04T05:24:10.170Z,100297.09
2023-04-04T05:26:36.705Z,100285.53
2023-04-04T05:29:03.207Z,100285.16
2023-04-04T05:31:29.815Z,100298.13
2023-04-04T05:33:56.670Z,100293.44
2023-04-04T05:36:23.411Z,100304.94
2023-04-04T05:38:50.099Z,100300.69
2023-04-04T05:41:16.642Z,100304.00
2023-04-04T05:43:43.220Z,100308.50
2023-04-04T05:46:09.945Z,100317.50
2023-04-04T05:48:36.585Z,100321.19
2023-04-04T05:51:03.268Z,100321.63
2023-04-04T05:53:30.281Z,100313.22
2023-04-04T05:55:58.668Z,100324.72
2023-04-04T05:58:26.425Z,100327.78
2023-04-04T06:00:53.035Z,100326.16
2023-04-04T06:03:21.828Z,100336.78
2023-04-04T06:05:53.014Z,100336.78
2023-04-04T06:08:19.806Z,100333.09
2023-04-04T06:10:46.435Z,100329.41
2023-04-04T06:13:13.008Z,100332.50
2023-04-04T06:15:39.544Z,100340.06
2023-04-04T06:18:06.099Z,100333.47
2023-04-04T06:20:32.704Z,100345.75
2023-04-04T06:23:02.060Z,100345.75
2023-04-04T06:25:28.715Z,100354.34
2023-04-04T06:27:55.568Z,100361.28
2023-04-04T06:30:22.105Z,100350.03
2023-04-04T06:32:49.393Z,100348.38
2023-04-04T06:35:18.120Z,100361.88
2023-04-04T06:37:46.158Z,100357.34
2023-04-04T06:40:12.818Z,100357.53
2023-04-04T06:42:39.374Z,100353.84
2023-04-04T06:45:06.430Z,100361.34
2023-04-04T06:47:33.014Z,100362.16
2023-04-04T06:49:59.650Z,100360.25
2023-04-04T06:52:26.669Z,100370.66
2023-04-04T06:54:53.201Z,100363.47
2023-04-04T06:57:19.768Z,100364.63
2023-04-04T06:59:46.477Z,100367.44
2023-04-04T07:02:13.115Z,100365.13
2023-04-04T07:04:40.156Z,100364.06
2023-04-04T07:07:06.728Z,100358.50
2023-04-04T07:09:33.301Z,100358.81
2023-04-04T07:11:59.922Z,100369.19
2023-04-04T07:14:26.511Z,100359.75
2023-04-04T07:16:53.395Z,100365.59
2023-04-04T07:19:19.995Z,100354.28
2023-04-04T07:21:46.505Z,100361.00
2023-04-04T07:24:13.028Z,100357.31
2023-04-04T07:26:40.909Z,100354.56
2023-04-04T07:29:08.124Z,100348.72
2023-04-04T07:31:34.796Z,100348.66
2023-04-04T07:34:02.155Z,100353.50
2023-04-04T07:36:28.671Z,100347.50
2023-04-04T07:38:55.523Z,100350.69
2023-04-04T07:41:22.681Z,100352.00
2023-04-04T07:43:49.667Z,100342.31
2023-04-04T07:46:16.887Z,100342.00
2023-04-04T07:48:44.064Z,100336.13
2023-04-04T07:51:10.634Z,100336.44
2023-04-04T07:53:37.670Z,100335.53
2023-04-04T07:56:06.595Z,100339.16
2023-04-04T07:58:36.690Z,100336.69
2023-04-04T08:01:04.064Z,100333.34
2023-04-04T08:03:30.893Z,100341.03
2023-04-04T08:05:57.636Z,100333.31
2023-04-04T08:08:24.292Z,100335.41
2023-04-04T08:10:50.855Z,100338.25
2023-04-04T08:13:17.347Z,100339.41
2023-04-04T08:15:44.161Z,100344.28
2023-04-04T08:18:11.178Z,100346.88
2023-04-04T08:20:38.211Z,100346.31
2023-04-04T08:23:05.059Z,100343.88
2023-04-04T08:25:31.631Z,100347.25
2023-04-04T08:27:58.327Z,100345.78
2023-04-04T08:30:24.996Z,100360.66
2023-04-04T08:32:51.590Z,100355.91
2023-04-04T08:35:18.290Z,100352.06
2023-04-04T08:37:46.330Z,100350.22
2023-04-04T08:40:13.481Z,100346.13
2023-04-04T08:42:44.411Z,100355.00
2023-04-04T08:45:12.420Z,100344.66
2023-04-04T08:47:41.107Z,100337.88
2023-04-04T08:50:08.594Z,100339.13
2023-04-04T08:52:35.889Z,100342.16
2023-04-04T08:55:05.545Z,100352.06
2023-04-04T08:57:33.570Z,100354.88
2023-04-04T09:00:00.625Z,100349.59
2023-04-04T09:02:34.281Z,100339.47
2023-04-04T09:05:06.720Z,100353.66
2023-04-04T09:07:34.344Z,100350.09
2023-04-04T09:10:04.097Z,100349.84
2023-04-04T09:12:32.562Z,100338.59
2023-04-04T09:15:00.702Z,100336.06
2023-04-04T09:17:27.482Z,100333.03
2023-04-04T09:19:54.288Z,100342.78
2023-04-04T09:22:21.078Z,100337.25
2023-04-04T09:24:48.429Z,100334.66
2023-04-04T09:27:16.421Z,100332.06
2023-04-04T09:29:43.000Z,100323.44
2023-04-04T09:32:13.994Z,100337.34
2023-04-04T09:34:41.697Z,100326.13
2023-04-04T09:37:08.425Z,100326.19
2023-04-04T09:39:35.585Z,100330.13
2023-04-04T09:42:02.413Z,100338.97
2023-04-04T09:44:33.418Z,100337.75
2023-04-04T09:47:31.742Z,100340.78
2023-04-04T09:50:04.195Z,100345.09
2023-04-04T09:52:35.802Z,100337.19
2023-04-04T09:55:04.719Z,100336.63
2023-04-04T09:57:38.043Z,100336.53
2023-04-04T10:00:09.630Z,100334.00
2023-04-04T10:02:46.185Z,100341.00
2023-04-04T10:05:12.869Z,100339.69
2023-04-04T10:07:40.408Z,100347.34
2023-04-04T10:10:09.139Z,100346.50
2023-04-04T10:12:37.141Z,100339.47
2023-04-04T10:15:04.020Z,100341.91
2023-04-04T10:17:31.920Z,100343.03
2023-04-04T10:20:04.424Z,100344.66
2023-04-04T10:22:35.875Z,100329.16
2023-04-04T10:25:03.838Z,100320.19
2023-04-04T10:27:30.642Z,100325.19
2023-04-04T10:29:57.316Z,100323.38
2023-04-04T10:32:57.704Z,100314.22
2023-04-04T10:35:25.240Z,100308.75
2023-04-04T10:37:59.167Z,100317.22
2023-04-04T10:40:34.630Z,100311.94
2023-04-04T10:43:04.183Z,100306.63
2023-04-04T10:45:32.167Z,100306.97
2023-04-04T10:48:00.284Z,100298.25
2023-04-04T10:50:26.958Z,100297.13
2023-04-04T10:52:53.562Z,100299.31
2023-04-04T10:55:20.554Z,100289.28
2023-04-04T10:57:51.949Z,100287.13
2023-04-04T11:00:20.302Z,100283.91
2023-04-04T11:02:58.400Z,100278.13
2023-04-04T11:05:42.537Z,100291.41
2023-04-04T11:08:11.089Z,100278.25
2023-04-04T11:10:41.333Z,100278.81
2023-04-04T11:13:15.956Z,100283.72
2023-04-04T11:15:56.707Z,100278.44
2023-04-04T11:18:43.725Z,100276.06
2023-04-04T11:21:13.895Z,100281.72
2023-04-04T11:23:49.363Z,100279.00
2023-04-04T11:26:35.441Z,100276.34
2023-04-04T11:29:04.579Z,100274.28
2023-04-04T11:31:39.155Z,100268.38
2023-04-04T11:34:13.431Z,100268.22
2023-04-04T11:36:40.760Z,100271.81
2023-04-04T11:39:17.007Z,100258.63
2023-04-04T11:42:12.126Z,100256.72
2023-04-04T11:44:45.692Z,100254.03
2023-04-04T11:47:13.596Z,100256.00
2023-04-04T11:49:45.780Z,100258.44
2023-04-04T11:52:13.250Z,100261.69
2023-04-04T11:54:41.667Z,100260.66
2023-04-04T11:57:11.614Z,100258.19
2023-04-04T11:59:46.119Z,100254.69
2023-04-04T12:02:15.721Z,100262.47
2023-04-04T12:04:46.041Z,100247.38
2023-04-04T12:07:14.058Z,100239.31
2023-04-04T12:09:42.298Z,100237.69
2023-04-04T12:12:18.711Z,100229.03
2023-04-04T12:14:45.614Z,100222.78
2023-04-04T12:17:12.229Z,100235.78
2023-04-04T12:19:40.567Z,100227.66
2023-04-04T12:22:08.494Z,100227.69
2023-04-04T12:24:36.386Z,100220.97
2023-04-04T12:27:03.659Z,100234.19
2023-04-04T12:29:36.516Z,100226.34
2023-04-04T12:32:04.669Z,100219.31
2023-04-04T12:34:33.895Z,100213.41
2023-04-04T12:37:01.890Z,100219.63
2023-04-04T12:39:29.890Z,100215.28
2023-04-04T12:42:01.281Z,100211.22
2023-04-04T12:44:36.396Z,100201.75
2023-04-04T12:47:05.633Z,100200.94
2023-04-04T12:49:43.097Z,100198.47
2023-04-04T12:52:21.846Z,100201.69
2023-04-04T12:54:59.164Z,100190.59
2023-04-04T12:57:34.188Z,100175.19
2023-04-04T13:00:02.264Z,100177.34
2023-04-04T13:02:29.683Z,100171.84
2023-04-04T13:04:58.832Z,100177.69
2023-04-04T13:07:40.060Z,100171.19
2023-04-04T13:10:07.534Z,100170.31
2023-04-04T13:12:58.345Z,100170.66
2023-04-04T13:15:53.224Z,100169.69
2023-04-04T13:18:25.213Z,100159.94
2023-04-04T13:20:52.777Z,100159.91
2023-04-04T13:23:19.970Z,100157.38
2023-04-04T13:25:46.651Z,100151.38
2023-04-04T13:28:14.378Z,100137.50
2023-04-04T13:30:46.486Z,100139.50
2023-04-04T13:33:13.019Z,100137.16
2023-04-04T13:35:42.388Z,100133.75
2023-04-04T13:38:09.023Z,100135.28
2023-04-04T13:40:35.720Z,100125.91
2023-04-04T13:43:02.297Z,100129.16
2023-04-04T13:45:28.836Z,100127.09
2023-04-04T13:47:55.596Z,100124.28
2023-04-04T13:50:22.971Z,100117.09
2023-04-04T13:52:52.375Z,100119.81
2023-04-04T13:55:19.015Z,100112.28
2023-04-04T13:57:45.540Z,100118.97
2023-04-04T14:00:13.158Z,100118.09
2023-04-04T14:02:39.962Z,100114.88
2023-04-04T14:05:08.082Z,100116.41
2023-04-04T14:07:34.709Z,100107.34
2023-04-04T14:10:01.419Z,100117.38
2023-04-04T14:12:28.089Z,100097.81
2023-04-04T14:14:54.627Z,100105.97
2023-04-04T14:17:21.309Z,100109.31
2023-04-04T14:19:47.842Z,100091.03
2023-04-04T14:22:14.394Z,100082.41
2023-04-04T14:24:41.336Z,100084.34
2023-04-04T14:27:07.875Z,100084.53
2023-04-04T14:29:34.432Z,100080.03
2023-04-04T14:32:01.413Z,100078.91
2023-04-04T14:34:28.120Z,100079.91
2023-04-04T14:36:54.752Z,100079.25
2023-04-04T14:39:21.609Z,100072.06
2023-04-04T14:41:48.558Z,100067.59
2023-04-04T14:44:15.396Z,100059.31
2023-04-04T14:46:41.923Z,100059.31
2023-04-04T14:49:08.461Z,100058.09
2023-04-04T14:51:35.024Z,100066.09
2023-04-04T14:54:01.647Z,100067.94
2023-04-04T14:56:28.269Z,100058.41
2023-04-04T14:58:54.903Z,100052.69
2023-04-04T15:01:22.814Z,100043.31
2023-04-04T15:03:49.936Z,100041.69
2023-04-04T15:06:16.786Z,100044.09
2023-04-04T15:08:43.335Z,100035.75
2023-04-04T15:11:10.145Z,100028.19
2023-04-04T15:13:36.779Z,100022.94
2023-04-04T15:16:04.274Z,100022.50
2023-04-04T15:18:31.036Z,100025.47
2023-04-04T15:20:58.662Z,100027.28
2023-04-04T15:23:25.366Z,100028.88
2023-04-04T15:25:51.945Z,100030.69
2023-04-04T15:28:18.462Z,100030.31
2023-04-04T15:30:44.984Z,100027.06
2023-04-04T15:33:11.617Z,100025.50
2023-04-04T15:35:38.228Z,100025.94
2023-04-04T15:38:04.741Z,100020.72
2023-04-04T15:40:31.682Z,100024.50
2023-04-04T15:42:58.289Z,100013.88
2023-04-04T15:45:25.010Z,100012.63
2023-04-04T15:47:51.615Z,100014.69
2023-04-04T15:50:18.283Z,100016.88
2023-04-04T15:52:44.882Z,100008.28
2023-04-04T15:55:13.669Z,100009.22
2023-04-04T15:57:40.668Z,100013.53
2023-04-04T16:00:07.788Z,100016.19
2023-04-04T16:02:34.704Z,100008.66
2023-04-04T16:05:01.673Z,100008.03
2023-04-04T16:07:28.283Z,99998.44
2023-04-04T16:09:55.272Z,100005.56
2023-04-04T16:12:22.491Z,100000.53
2023-04-04T16:14:49.212Z,100004.91
2023-04-04T16:17:15.788Z,99998.94
2023-04-04T16:19:43.516Z,100005.09
2023-04-04T16:22:10.097Z,100003.28
2023-04-04T16:24:37.279Z,100000.75
2023-04-04T16:27:03.975Z,100001.91
2023-04-04T16:29:31.256Z,100001.59
2023-04-04T16:31:57.927Z,100003.13
2023-04-04T16:34:24.494Z,99999.56
2023-04-04T16:36:51.181Z,99997.56
2023-04-04T16:39:18.056Z,99995.19
2023-04-04T16:41:44.588Z,100002.09
2023-04-04T16:44:12.329Z,100002.94
2023-04-04T16:46:38.951Z,100001.94
2023-04-04T16:49:05.622Z,100005.19
2023-04-04T16:51:32.340Z,100008.81
2023-04-04T16:53:58.836Z,100019.88
2023-04-04T16:56:25.564Z,100015.03
2023-04-04T16:58:52.172Z,100017.84
2023-04-04T17:01:22.572Z,100020.22
2023-04-04T17:03:49.517Z,100015.69
2023-04-04T17:06:16.164Z,100019.25
2023-04-04T17:08:45.076Z,100021.38
2023-04-04T17:11:13.119Z,100018.06
2023-04-04T17:13:39.708Z,100023.00
2023-04-04T17:16:06.648Z,100016.34
2023-04-04T17:18:34.178Z,100015.06
2023-04-04T17:21:01.411Z,100017.03
2023-04-04T17:23:27.989Z,100018.19
2023-04-04T17:25:54.578Z,100021.22
2023-04-04T17:28:21.611Z,100027.75
2023-04-04T17:30:48.220Z,100024.28
2023-04-04T17:33:14.850Z,100019.16
2023-04-04T17:35:41.430Z,100035.69
2023-04-04T17:38:08.099Z,100026.28
2023-04-04T17:40:36.445Z,100026.06
2023-04-04T17:43:03.118Z,100032.28
2023-04-04T17:45:29.763Z,100034.72
2023-04-04T17:47:56.332Z,100030.69
2023-04-04T17:50:23.001Z,100033.94
2023-04-04T17:52:49.575Z,100037.72
2023-04-04T17:55:16.605Z,100043.41
2023-04-04T17:57:44.967Z,100036.66
2023-04-04T18:00:12.365Z,100046.94
2023-04-04T18:02:38.973Z,100046.38
2023-04-04T18:05:05.891Z,100041.28
2023-04-04T18:07:32.429Z,100043.94
2023-04-04T18:09:58.926Z,100043.38
2023-04-04T18:12:30.039Z,100046.09
2023-04-04T18:14:56.753Z,100038.25
2023-04-04T18:17:23.827Z,100048.22
2023-04-04T18:19:50.387Z,100048.22
2023-04-04T18:22:17.740Z,100049.00
2023-04-04T18:24:44.792Z,100054.94
2023-04-04T18:27:12.317Z,100057.09
2023-04-04T18:29:39.020Z,100056.50
2023-04-04T18:32:05.663Z,100058.94
2023-04-04T18:34:33.516Z,100060.81
2023-04-04T18:37:00.111Z,100059.19
2023-04-04T18:39:27.782Z,100060.50
2023-04-04T18:41:54.797Z,100058.28
2023-04-04T18:44:21.672Z,100058.81
2023-04-04T18:46:48.507Z,100057.69
2023-04-04T18:49:15.101Z,100056.84
2023-04-04T18:51:42.014Z,100064.09
2023-04-04T18:54:08.599Z,100063.25
2023-04-04T18:56:36.117Z,100063.78
2023-04-04T18:59:03.685Z,100070.19
2023-04-04T19:01:31.588Z,100067.44
2023-04-04T19:03:58.369Z,100063.06
2023-04-04T19:06:27.515Z,100074.28
2023-04-04T19:08:57.519Z,100074.72
2023-04-04T19:11:25.291Z,100072.69
2023-04-04T19:13:51.888Z,100075.00
2023-04-04T19:16:18.785Z,100081.34
2023-04-04T19:18:45.355Z,100086.03
2023-04-04T19:21:12.017Z,100081.66
2023-04-04T19:23:38.581Z,100077.81
2023-04-04T19:26:06.566Z,100083.59
2023-04-04T19:28:33.580Z,100082.13
2023-04-04T19:31:02.057Z,100086.06
2023-04-04T19:33:28.738Z,100086.50
2023-04-04T19:35:59.085Z,100085.91
2023-04-04T19:38:32.345Z,100088.44
2023-04-04T19:41:01.702Z,100088.38
2023-04-04T19:43:29.618Z,100092.06
2023-04-04T19:45:58.392Z,100100.84
2023-04-04T19:48:55.389Z,100108.50
2023-04-04T19:51:21.933Z,100102.81
2023-04-04T19:53:56.877Z,100100.06
2023-04-04T19:56:28.433Z,100094.31
2023-04-04T19:59:00.499Z,100095.28
2023-04-04T20:01:28.181Z,100098.31
2023-04-04T20:04:03.940Z,100096.69
2023-04-04T20:06:34.292Z,100097.66
2023-04-04T20:09:03.352Z,100096.53
2023-04-04T20:11:35.560Z,100101.81
2023-04-04T20:14:06.217Z,100106.28
2023-04-04T20:16:33.448Z,100106.75
2023-04-04T20:19:02.205Z,100105.63
2023-04-04T20:21:32.016Z,100109.03
2023-04-04T20:24:04.470Z,100113.25
2023-04-04T20:26:34.219Z,100109.19
2023-04-04T20:29:01.319Z,100116.91
2023-04-04T20:31:27.870Z,100116.78
2023-04-04T20:33:54.932Z,100125.59
2023-04-04T20:36:21.790Z,100111.03
2023-04-04T20:38:48.494Z,100109.66
2023-04-04T20:41:19.572Z,100114.66
2023-04-04T20:43:56.727Z,100112.69
2023-04-04T20:46:25.563Z,100117.03
2023-04-04T20:48:56.334Z,100114.56
2023-04-04T20:51:27.329Z,100119.06
2023-04-04T20:53:56.143Z,100117.72
2023-04-04T20:56:41.273Z,100112.50
2023-04-04T20:59:31.891Z,100109.25
2023-04-04T21:02:13.285Z,100116.44
2023-04-04T21:04:41.257Z,100119.97
2023-04-04T21:07:08.438Z,100118.72
2023-04-04T21:09:35.019Z,100118.13
2023-04-04T21:12:02.156Z,100120.22
2023-04-04T21:14:35.868Z,100124.22
2023-04-04T21:17:04.876Z,100129.78
2023-04-04T21:19:31.456Z,100124.91
2023-04-04T21:21:58.131Z,100125.75
2023-04-04T21:24:26.292Z,100127.03
2023-04-04T21:26:53.169Z,100123.78
2023-04-04T21:29:24.826Z,100117.28
2023-04-04T21:31:53.978Z,100131.72
2023-04-04T21:34:22.617Z,100130.53
2023-04-04T21:36:51.542Z,100131.38
2023-04-04T21:39:24.926Z,100131.59
2023-04-04T21:41:56.617Z,100128.34
2023-04-04T21:44:23.880Z,100131.50
2023-04-04T21:46:50.696Z,100130.69
2023-04-04T21:49:18.073Z,100131.97
2023-04-04T21:51:44.608Z,100121.75
2023-04-04T21:54:11.352Z,100125.94
2023-04-04T21:56:38.519Z,100127.22
2023-04-04T21:59:08.277Z,100128.53
2023-04-04T22:01:37.210Z,100126.53
2023-04-04T22:04:04.014Z,100128.28
2023-04-04T22:06:31.114Z,100125.50
2023-04-04T22:08:59.334Z,100129.13
2023-04-04T22:11:27.194Z,100120.75
2023-04-04T22:14:03.859Z,100113.44
2023-04-04T22:16:31.589Z,100112.28
2023-04-04T22:18:58.820Z,100113.31
2023-04-04T22:21:28.114Z,100109.81
2023-04-04T22:24:00.626Z,100116.00
2023-04-04T22:26:33.262Z,100113.91
2023-04-04T22:29:05.395Z,100110.66
2023-04-04T22:31:34.630Z,100106.94
2023-04-04T22:34:03.176Z,100110.19
2023-04-04T22:36:30.195Z,100103.78
2023-04-04T22:38:57.892Z,100106.47
2023-04-04T22:41:27.686Z,100100.06
2023-04-04T22:43:54.697Z,100103.88
2023-04-04T22:46:21.396Z,100093.78
2023-04-04T22:48:48.299Z,100096.47
2023-04-04T22:51:17.440Z,100095.16
2023-04-04T22:53:44.447Z,100088.78
2023-04-04T22:56:11.483Z,100076.22
2023-04-04T22:58:38.507Z,100087.50
2023-04-04T23:01:05.184Z,100090.16
2023-04-04T23:03:31.977Z,100084.00
2023-04-04T23:05:58.590Z,100082.63
2023-04-04T23:08:25.340Z,100084.13
2023-04-04T23:10:51.885Z,100074.94
2023-04-04T23:13:18.425Z,100078.91
2023-04-04T23:15:45.483Z,100076.13
2023-04-04T23:18:13.296Z,100070.91
2023-04-04T23:20:40.875Z,100070.78
2023-04-04T23:23:07.634Z,100067.53
2023-04-04T23:25:34.273Z,100068.59
2023-04-04T23:28:00.882Z,100058.94
2023-04-04T23:30:28.508Z,100055.47
2023-04-04T23:32:55.058Z,100057.09
2023-04-04T23:35:21.608Z,100059.53
2023-04-04T23:37:48.785Z,100054.16
2023-04-04T23:40:15.473Z,100056.28
2023-04-04T23:42:42.073Z,100054.06
2023-04-04T23:45:09.554Z,100056.75
2023-04-04T23:47:37.092Z,100058.25
2023-04-04T23:50:04.172Z,100051.75
2023-04-04T23:52:30.712Z,100059.66
2023-04-04T23:54:57.259Z,100068.13
2023-04-04T23:57:24.166Z,100065.34
2023-04-04T23:59:50.800Z,100075.91
